createdAt,value
2023-04-01T00:00:14.949Z,98872.72
2023-04-01T00:03:17.563Z,98860.47
2023-04-01T00:06:20.067Z,98859.66
2023-04-01T00:09:22.176Z,98860.78
2023-04-01T00:12:26.110Z,98866.13
2023-04-01T00:15:28.306Z,98857.03
2023-04-01T00:18:30.811Z,98861.56
2023-04-01T00:21:33.280Z,98849.25
2023-04-01T00:24:35.668Z,98854.88
2023-04-01T00:27:37.973Z,98851.97
2023-04-01T00:30:40.265Z,98849.63
2023-04-01T00:33:42.522Z,98852.53
2023-04-01T00:36:44.959Z,98857.38
2023-04-01T00:39:47.587Z,98857.59
2023-04-01T00:42:49.864Z,98856.56
2023-04-01T00:45:52.057Z,98855.25
2023-04-01T00:48:56.478Z,98855.22
2023-04-01T00:52:01.339Z,98844.50
2023-04-01T00:55:06.247Z,98848.50
2023-04-01T00:58:11.316Z,98838.88
2023-04-01T01:01:13.724Z,98837.78
2023-04-01T01:04:31.254Z,98838.03
2023-04-01T01:07:42.860Z,98839.41
2023-04-01T01:10:50.026Z,98838.88
2023-04-01T01:14:37.169Z,98841.28
2023-04-01T01:18:01.196Z,98847.97
2023-04-01T01:21:35.753Z,98856.06
2023-04-01T01:24:41.121Z,98857.94
2023-04-01T01:27:50.688Z,98842.66
2023-04-01T01:31:03.443Z,98846.13
2023-04-01T01:34:33.832Z,98843.91
2023-04-01T01:37:36.481Z,98838.25
2023-04-01T01:40:41.088Z,98839.56
2023-04-01T01:43:45.938Z,98835.56
2023-04-01T01:46:50.793Z,98840.09
2023-04-01T01:49:54.275Z,98844.66
2023-04-01T01:53:07.177Z,98830.13
2023-04-01T01:56:13.563Z,98828.25
2023-04-01T01:59:17.183Z,98834.97
2023-04-01T02:02:20.882Z,98838.75
2023-04-01T02:05:26.079Z,98833.16
2023-04-01T02:08:37.531Z,98838.84
2023-04-01T02:11:46.222Z,98833.41
2023-04-01T02:14:53.303Z,98826.41
2023-04-01T02:17:59.159Z,98827.22
2023-04-01T02:21:01.729Z,98808.84
2023-04-01T02:24:07.467Z,98816.00
2023-04-01T02:27:10.971Z,98811.44
2023-04-01T02:30:14.608Z,98823.84
2023-04-01T02:33:17.775Z,98812.06
2023-04-01T02:36:20.035Z,98808.56
2023-04-01T02:39:22.549Z,98814.16
2023-04-01T02:42:24.732Z,98810.16
2023-04-01T02:45:26.864Z,98810.16
2023-04-01T02:48:29.485Z,98807.22
2023-04-01T02:51:32.672Z,98810.94
2023-04-01T02:54:35.419Z,98818.41
2023-04-01T02:57:37.557Z,98811.44
2023-04-01T03:00:39.755Z,98819.47
2023-04-01T03:03:41.884Z,98820.00
2023-04-01T03:06:44.084Z,98811.19
2023-04-01T03:09:46.203Z,98812.06
2023-04-01T03:12:48.319Z,98816.38
2023-04-01T03:15:50.723Z,98813.75
2023-04-01T03:18:54.338Z,98816.16
2023-04-01T03:21:57.349Z,98804.38
2023-04-01T03:25:00.145Z,98807.56
2023-04-01T03:28:03.273Z,98799.81
2023-04-01T03:31:06.138Z,98819.59
2023-04-01T03:37:33.282Z,98829.25
2023-04-01T03:40:38.341Z,98835.16
2023-04-01T03:43:44.620Z,98836.53
2023-04-01T03:46:47.318Z,98845.88
2023-04-01T03:49:51.038Z,98846.97
2023-04-01T03:52:53.229Z,98842.16
2023-04-01T03:55:55.676Z,98843.28
2023-04-01T03:59:01.148Z,98848.34
2023-04-01T04:02:03.547Z,98846.47
2023-04-01T04:05:07.936Z,98848.38
2023-04-01T04:08:10.719Z,98849.72
2023-04-01T04:11:13.111Z,98852.94
2023-04-01T04:14:17.694Z,98849.19
2023-04-01T04:17:21.193Z,98840.09
2023-04-01T04:20:23.485Z,98851.63
2023-04-01T04:23:25.763Z,98849.78
2023-04-01T04:26:28.227Z,98843.31
2023-04-01T04:29:35.774Z,98842.25
2023-04-01T04:32:42.395Z,98846.28
2023-04-01T04:35:46.672Z,98848.09
2023-04-01T04:38:49.358Z,98844.66
2023-04-01T04:41:51.637Z,98833.13
2023-04-01T04:44:56.864Z,98844.84
2023-04-01T04:47:59.746Z,98829.84
2023-04-01T04:51:02.478Z,98833.28
2023-04-01T04:54:05.170Z,98831.59
2023-04-01T04:57:36.520Z,98827.34
2023-04-01T05:00:38.795Z,98831.38
2023-04-01T05:03:46.105Z,98832.22
2023-04-01T05:06:48.336Z,98833.59
2023-04-01T05:09:52.239Z,98834.09
2023-04-01T05:12:54.540Z,98831.66
2023-04-01T05:15:58.510Z,98832.88
2023-04-01T05:19:01.306Z,98842.56
2023-04-01T05:22:03.685Z,98838.25
2023-04-01T05:25:06.453Z,98843.09
2023-04-01T05:28:08.931Z,98846.56
2023-04-01T05:31:11.478Z,98851.09
2023-04-01T05:34:15.986Z,98853.19
2023-04-01T05:37:18.496Z,98850.78
2023-04-01T05:40:21.456Z,98855.84
2023-04-01T05:43:23.707Z,98853.91
2023-04-01T05:46:27.206Z,98851.47
2023-04-01T05:49:34.959Z,98851.41
2023-04-01T05:52:39.077Z,98850.06
2023-04-01T05:55:41.296Z,98846.81
2023-04-01T05:58:43.449Z,98846.53
2023-04-01T06:01:45.722Z,98852.94
2023-04-01T06:04:48.548Z,98841.94
2023-04-01T06:08:02.192Z,98850.31
2023-04-01T06:11:14.580Z,98854.78
2023-04-01T06:14:54.990Z,98846.16
2023-04-01T06:18:31.274Z,98844.25
2023-04-01T06:21:56.366Z,98845.00
2023-04-01T06:25:12.159Z,98843.56
2023-04-01T06:28:17.524Z,98838.19
2023-04-01T06:31:46.093Z,98830.56
2023-04-01T06:35:01.437Z,98842.66
2023-04-01T06:38:19.387Z,98837.97
2023-04-01T06:41:36.745Z,98852.16
2023-04-01T06:45:00.509Z,98850.16
2023-04-01T06:48:43.240Z,98861.91
2023-04-01T06:52:21.095Z,98852.03
2023-04-01T06:55:50.936Z,98865.13
2023-04-01T06:59:16.886Z,98861.66
2023-04-01T07:02:32.361Z,98854.38
2023-04-01T07:05:36.794Z,98865.00
2023-04-01T07:08:41.800Z,98849.91
2023-04-01T07:11:44.291Z,98849.56
2023-04-01T07:15:25.993Z,98858.66
2023-04-01T07:18:51.794Z,98857.44
2023-04-01T07:22:00.065Z,98851.31
2023-04-01T07:25:16.165Z,98847.41
2023-04-01T07:32:10.362Z,98854.31
2023-04-01T07:35:31.017Z,98854.19
2023-04-01T07:38:45.383Z,98860.00
2023-04-01T07:41:57.843Z,98864.31
2023-04-01T07:45:17.525Z,98859.06
2023-04-01T07:48:29.064Z,98865.19
2023-04-01T07:51:55.231Z,98867.38
2023-04-01T07:55:47.755Z,98863.81
2023-04-01T07:59:31.547Z,98867.84
2023-04-01T08:03:04.866Z,98864.47
2023-04-01T08:06:28.528Z,98853.47
2023-04-01T08:09:46.158Z,98863.28
2023-04-01T08:13:22.781Z,98867.06
2023-04-01T08:17:11.411Z,98861.88
2023-04-01T08:20:37.588Z,98871.72
2023-04-01T08:23:48.636Z,98865.25
2023-04-01T08:26:55.204Z,98865.53
2023-04-01T08:30:18.285Z,98877.63
2023-04-01T08:33:23.732Z,98874.25
2023-04-01T08:36:34.419Z,98870.41
2023-04-01T08:40:35.881Z,98863.91
2023-04-01T08:43:49.508Z,98864.91
2023-04-01T08:47:21.709Z,98865.22
2023-04-01T08:50:47.618Z,98863.25
2023-04-01T08:54:42.975Z,98863.44
2023-04-01T08:58:00.149Z,98862.56
2023-04-01T09:01:39.410Z,98867.06
2023-04-01T09:05:21.955Z,98868.34
2023-04-01T09:08:48.705Z,98862.91
2023-04-01T09:12:28.891Z,98866.31
2023-04-01T09:15:51.677Z,98873.19
2023-04-01T09:19:08.982Z,98862.78
2023-04-01T09:22:28.481Z,98864.88
2023-04-01T09:25:55.302Z,98860.31
2023-04-01T09:29:00.875Z,98863.91
2023-04-01T09:32:19.496Z,98864.66
2023-04-01T09:35:31.067Z,98862.38
2023-04-01T09:38:50.999Z,98865.25
2023-04-01T09:41:59.314Z,98865.66
2023-04-01T09:45:45.450Z,98867.66
2023-04-01T09:49:01.531Z,98859.16
2023-04-01T09:52:26.445Z,98860.13
2023-04-01T09:55:51.515Z,98874.13
2023-04-01T09:59:12.630Z,98892.06
2023-04-01T10:03:06.453Z,98884.66
2023-04-01T10:06:34.322Z,98863.06
2023-04-01T10:10:05.246Z,98872.06
2023-04-01T10:13:26.573Z,98880.16
2023-04-01T10:16:43.713Z,98880.66
2023-04-01T10:19:49.210Z,98871.56
2023-04-01T10:23:04.756Z,98881.03
2023-04-01T10:26:41.266Z,98888.75
2023-04-01T10:30:26.021Z,98881.53
2023-04-01T10:33:37.659Z,98889.41
2023-04-01T10:36:53.459Z,98887.00
2023-04-01T10:40:37.045Z,98887.88
2023-04-01T10:44:23.638Z,98891.50
2023-04-01T10:47:44.564Z,98891.69
2023-04-01T10:51:17.880Z,98881.94
2023-04-01T10:54:32.424Z,98887.88
2023-04-01T10:58:37.022Z,98883.81
2023-04-01T11:02:29.918Z,98888.91
2023-04-01T11:06:23.028Z,98883.16
2023-04-01T11:10:03.156Z,98884.97
2023-04-01T11:13:21.163Z,98880.06
2023-04-01T11:17:05.501Z,98867.88
2023-04-01T11:20:11.084Z,98877.09
2023-04-01T11:23:16.302Z,98872.47
2023-04-01T11:26:46.372Z,98876.47
2023-04-01T11:30:24.088Z,98871.28
2023-04-01T11:33:37.954Z,98862.41
2023-04-01T11:36:53.648Z,98867.41
2023-04-01T11:40:10.012Z,98883.28
2023-04-01T11:43:49.603Z,98873.97
2023-04-01T11:47:20.521Z,98891.25
2023-04-01T11:51:00.270Z,98885.16
2023-04-01T11:54:16.074Z,98880.97
2023-04-01T11:57:49.351Z,98889.41
2023-04-01T12:01:01.246Z,98889.81
2023-04-01T12:04:15.620Z,98882.00
2023-04-01T12:07:24.021Z,98884.47
2023-04-01T12:10:29.873Z,98877.56
2023-04-01T12:13:42.021Z,98888.19
2023-04-01T12:16:44.268Z,98888.34
2023-04-01T12:19:54.014Z,98891.69
2023-04-01T12:23:23.704Z,98889.63
2023-04-01T12:26:58.047Z,98890.44
2023-04-01T12:30:39.052Z,98877.88
2023-04-01T12:34:02.940Z,98884.53
2023-04-01T12:37:53.332Z,98879.56
2023-04-01T12:41:11.925Z,98883.75
2023-04-01T12:44:41.529Z,98889.53
2023-04-01T12:48:10.954Z,98884.53
2023-04-01T12:51:22.125Z,98871.16
2023-04-01T12:54:55.336Z,98878.53
2023-04-01T12:58:11.876Z,98876.84
2023-04-01T13:01:31.475Z,98872.66
2023-04-01T13:04:41.618Z,98862.63
2023-04-01T13:07:46.630Z,98862.25
2023-04-01T13:10:53.360Z,98853.59
2023-04-01T13:13:55.458Z,98850.66
2023-04-01T13:17:03.251Z,98850.09
2023-04-01T13:20:11.237Z,98850.03
2023-04-01T13:23:52.024Z,98851.19
2023-04-01T13:27:09.038Z,98842.16
2023-04-01T13:30:48.649Z,98854.94
2023-04-01T13:34:14.153Z,98854.16
2023-04-01T13:37:49.323Z,98852.16
2023-04-01T13:41:06.300Z,98864.91
2023-04-01T13:44:24.022Z,98852.03
2023-04-01T13:47:43.685Z,98849.34
2023-04-01T13:51:01.146Z,98856.66
2023-04-01T13:54:37.303Z,98858.88
2023-04-01T13:58:16.736Z,98860.81
2023-04-01T14:01:28.330Z,98859.84
2023-04-01T14:04:57.483Z,98871.28
2023-04-01T14:08:16.143Z,98859.19
2023-04-01T14:11:29.966Z,98869.75
2023-04-01T14:15:00.170Z,98868.19
2023-04-01T14:18:17.213Z,98865.00
2023-04-01T14:21:37.210Z,98856.06
2023-04-01T14:24:46.908Z,98877.69
2023-04-01T14:28:08.452Z,98869.41
2023-04-01T14:31:22.386Z,98859.47
2023-04-01T14:34:50.004Z,98865.97
2023-04-01T14:38:16.936Z,98864.41
2023-04-01T14:41:29.698Z,98872.84
2023-04-01T14:44:50.071Z,98870.31
2023-04-01T14:47:59.789Z,98871.31
2023-04-01T14:51:35.053Z,98869.63
2023-04-01T14:54:39.172Z,98862.16
2023-04-01T14:57:41.311Z,98856.13
2023-04-01T15:00:46.448Z,98864.41
2023-04-01T15:04:09.887Z,98857.53
2023-04-01T15:07:30.835Z,98862.81
2023-04-01T15:10:51.136Z,98868.22
2023-04-01T15:13:59.426Z,98858.19
2023-04-01T15:17:11.618Z,98862.81
2023-04-01T15:20:25.981Z,98871.97
2023-04-01T15:23:38.327Z,98868.25
2023-04-01T15:26:46.103Z,98867.38
2023-04-01T15:29:48.163Z,98876.34
2023-04-01T15:33:02.343Z,98874.88
2023-04-01T15:36:31.052Z,98875.38
2023-04-01T15:40:08.808Z,98886.41
2023-04-01T15:43:28.554Z,98875.81
2023-04-01T15:46:46.353Z,98877.59
2023-04-01T15:50:14.461Z,98887.94
2023-04-01T15:53:22.339Z,98892.66
2023-04-01T15:56:30.381Z,98892.16
2023-04-01T15:59:57.456Z,98892.81
2023-04-01T16:03:20.872Z,98891.38
2023-04-01T16:07:16.909Z,98884.50
2023-04-01T16:10:27.212Z,98889.44
2023-04-01T16:13:49.500Z,98890.59
2023-04-01T16:17:22.402Z,98897.56
2023-04-01T16:20:43.351Z,98898.16
2023-04-01T16:23:57.084Z,98904.13
2023-04-01T16:27:05.890Z,98903.63
2023-04-01T16:30:23.518Z,98908.75
2023-04-01T16:33:52.118Z,98903.78
2023-04-01T16:37:15.681Z,98912.44
2023-04-01T16:40:43.719Z,98917.59
2023-04-01T16:43:56.465Z,98919.63
2023-04-01T16:47:11.417Z,98924.84
2023-04-01T16:50:22.844Z,98927.84
2023-04-01T16:53:46.906Z,98923.88
2023-04-01T16:56:53.406Z,98925.00
2023-04-01T16:59:59.841Z,98936.41
2023-04-01T17:03:01.910Z,98930.38
2023-04-01T17:06:13.020Z,98937.59
2023-04-01T17:09:27.351Z,98937.72
2023-04-01T17:12:52.954Z,98937.50
2023-04-01T17:16:09.939Z,98935.03
2023-04-01T17:19:49.669Z,98949.91
2023-04-01T17:23:02.718Z,98956.59
2023-04-01T17:26:13.288Z,98953.28
2023-04-01T17:29:18.330Z,98957.34
2023-04-01T17:32:32.431Z,98947.47
2023-04-01T17:35:40.759Z,98951.75
2023-04-01T17:39:16.324Z,98965.81
2023-04-01T17:43:00.399Z,98970.50
2023-04-01T17:46:11.676Z,98969.53
2023-04-01T17:49:58.494Z,98971.44
2023-04-01T17:53:28.038Z,98970.94
2023-04-01T17:56:53.395Z,98976.91
2023-04-01T18:00:14.059Z,98976.69
2023-04-01T18:03:53.960Z,98977.81
2023-04-01T18:07:20.324Z,98996.16
2023-04-01T18:10:50.492Z,98986.47
2023-04-01T18:14:17.532Z,99001.25
2023-04-01T18:17:27.097Z,99005.03
2023-04-01T18:20:37.881Z,99003.34
2023-04-01T18:23:59.193Z,99010.22
2023-04-01T18:27:07.966Z,99007.81
2023-04-01T18:30:23.493Z,99018.19
2023-04-01T18:33:31.586Z,99010.66
2023-04-01T18:36:52.891Z,99029.53
2023-04-01T18:40:16.381Z,99023.72
2023-04-01T18:44:02.278Z,99023.03
2023-04-01T18:47:28.476Z,99023.41
2023-04-01T18:50:48.964Z,99032.06
2023-04-01T18:53:58.157Z,99039.94
2023-04-01T18:57:14.039Z,99036.00
2023-04-01T19:00:25.883Z,99045.19
2023-04-01T19:03:48.338Z,99046.25
2023-04-01T19:06:55.814Z,99046.03
2023-04-01T19:10:02.236Z,99040.75
2023-04-01T19:13:12.423Z,99033.63
2023-04-01T19:16:44.938Z,99037.69
2023-04-01T19:19:52.720Z,99042.28
2023-04-01T19:23:19.865Z,99046.94
2023-04-01T19:26:28.259Z,99038.84
2023-04-01T19:29:49.264Z,99048.28
2023-04-01T19:33:28.972Z,99050.53
2023-04-01T19:36:34.686Z,99061.38
2023-04-01T19:40:09.880Z,99064.31
2023-04-01T19:43:31.072Z,99053.94
2023-04-01T19:46:45.351Z,99061.28
2023-04-01T19:50:17.114Z,99071.50
2023-04-01T19:53:47.350Z,99076.09
2023-04-01T19:57:06.064Z,99071.84
2023-04-01T20:00:13.313Z,99074.53
2023-04-01T20:03:34.326Z,99069.47
2023-04-01T20:06:43.246Z,99066.50
2023-04-01T20:09:51.248Z,99076.94
2023-04-01T20:13:18.309Z,99071.75
2023-04-01T20:16:23.544Z,99081.09
2023-04-01T20:19:31.674Z,99077.03
2023-04-01T20:22:46.332Z,99077.31
2023-04-01T20:26:03.639Z,99080.84
2023-04-01T20:29:27.504Z,99083.28
2023-04-01T20:32:35.846Z,99073.25
2023-04-01T20:36:17.671Z,99077.00
2023-04-01T20:39:46.718Z,99085.63
2023-04-01T20:43:03.659Z,99087.78
2023-04-01T20:46:22.023Z,99094.25
2023-04-01T20:49:50.785Z,99089.72
2023-04-01T20:53:14.525Z,99089.19
2023-04-01T20:56:34.172Z,99092.66
2023-04-01T20:59:36.316Z,99093.75
2023-04-01T21:02:59.735Z,99101.06
2023-04-01T21:06:27.747Z,99102.44
2023-04-01T21:09:47.298Z,99102.47
2023-04-01T21:13:02.361Z,99109.44
2023-04-01T21:16:16.464Z,99115.06
2023-04-01T21:19:52.432Z,99122.38
2023-04-01T21:23:09.690Z,99117.34
2023-04-01T21:26:20.674Z,99120.88
2023-04-01T21:29:41.656Z,99124.69
2023-04-01T21:33:05.033Z,99120.13
2023-04-01T21:36:32.977Z,99124.22
2023-04-01T21:39:53.216Z,99126.38
2023-04-01T21:43:20.093Z,99132.88
2023-04-01T21:47:02.982Z,99131.28
2023-04-01T21:50:26.708Z,99134.84
2023-04-01T21:54:07.385Z,99131.34
2023-04-01T21:57:12.410Z,99125.97
2023-04-01T22:00:21.196Z,99135.94
2023-04-01T22:03:45.466Z,99131.97
2023-04-01T22:06:49.856Z,99143.22
2023-04-01T22:09:59.451Z,99127.66
2023-04-01T22:13:09.326Z,99137.25
2023-04-01T22:16:38.342Z,99138.88
2023-04-01T22:19:51.798Z,99146.94
2023-04-01T22:23:00.581Z,99137.81
2023-04-01T22:26:07.692Z,99151.78
2023-04-01T22:29:51.839Z,99148.81
2023-04-01T22:33:01.262Z,99148.25
2023-04-01T22:36:12.890Z,99154.94
2023-04-01T22:39:27.091Z,99148.28
2023-04-01T22:42:42.968Z,99171.66
2023-04-01T22:46:30.154Z,99169.56
2023-04-01T22:49:43.370Z,99175.75
2023-04-01T22:52:52.916Z,99173.91
2023-04-01T22:55:58.486Z,99178.47
2023-04-01T22:59:20.348Z,99184.91
2023-04-01T23:02:27.157Z,99185.19
2023-04-01T23:05:29.885Z,99183.88
2023-04-01T23:08:43.435Z,99187.38
2023-04-01T23:11:50.088Z,99192.47
2023-04-01T23:14:54.929Z,99196.47
2023-04-01T23:18:20.885Z,99198.06
2023-04-01T23:21:29.019Z,99203.16
2023-04-01T23:24:53.608Z,99203.69
2023-04-01T23:28:15.474Z,99203.19
2023-04-01T23:31:28.661Z,99207.50
2023-04-01T23:34:36.173Z,99209.09
2023-04-01T23:37:38.306Z,99210.72
2023-04-01T23:40:41.459Z,99197.03
2023-04-01T23:43:44.833Z,99203.78
2023-04-01T23:46:47.792Z,99202.69
2023-04-01T23:49:56.433Z,99203.28
2023-04-01T23:53:04.256Z,99205.69
2023-04-01T23:56:06.724Z,99202.50
2023-04-01T23:59:19.208Z,99216.47
